Sparta, Michigan
Current Conditions -  °F | °C
As of 5:53 AM on Saturday 25 Oct 2014 (Local Time) from KGRR Reporting Station
Overcast Overcast  
Wind Chill: 56°   Ceiling: 2900
Heat Index: 56°   Visibility: 8mi
Dew Point: 50°   Wind: 10mph
Humidity: 80%   Direction: 240°WSW
Pressure: 29.85"   Gusts: NA
Location:  43.16°N, 85.71°W
Report Text: KGRR 250953Z 24009KT 8SM BKN029 OVC041 13/10 A2985 RMK AO2 SLP108 T01330100
Loading
Personal Weather Stations






























Interactive Weather Map
Tropical Storm Tracking
New forecast layout! Learn more

10-Day Weather Forecast

Advertisements
Track Severe Weather on mobile